In Rescue
 
Open Full Screen Window  High Contrast Mode
Wind Gusting 22 knots
16
March 29, 2020 8:06 PM EDT
Present Weather: Light Rain
Weather Information
Wind Direction
  230 °
Wind Speed
  16 kt (18 mph)
Wind Gust
  22 kt (25 mph)
Altimeter
29.64 in
Visibility
10 SM
Temperature
06° C
43° F
Dewpoint
04° C
39° F
Humidity
87%
1hr Rain Fall
00.00 in.
24hr Rain Fall
00.60 in.
Sky Condition
Overcast @ 1,500 ft
MVFR

METAR KMOP 300006Z AUTO 23016G22KT 10SM -RA OVC015 06/04 A2964 RMK AO2 T00590037

FAA Disclaimer: The data displayed is for advisory purposes only and is not to be used for flight planning or operations.